Airfield :
LOGIN :

Register | Disclaimer

   EN    FR    IT 

 










Legend :    VFR   Marginal VFR   IFR   Intensive IFR   Very Intensive IFR
Visi :
Ceiling :
>= 8 km
>= 3000ft
5 to 8 km
1000 to 3000 ft
1500m to 5 km
500 to 1000 ft
800 to 1500m
200 to 500 ft
< 800m
< 200 ft
Symbols :   Thunderstorms  Fog  Heavy snow  Heavy precipitations  Wind > 20 kt
SIGMETs :     Misc.  Thunderstorms  Icing  Turbulence  Mountain Waves  Volcanic Ashes






- Airport Elevation : 0 ft


ETEB - Ansbach Army Heliport

CURRENT METAR :
  • 282155Z AUTO 00000KT 9000 BR CLR 02/01 A3013 RMK AO2 SLP230 T00150005 $

EXPIRED METARs :
  • 282055Z AUTO 00000KT 9999 CLR 02/01 A3014 RMK AO2 SLP234 T00210006 58004 $
  • 281955Z AUTO 20004KT 9999 CLR 02/01 A3015 RMK AO2 SLP237 T00220007 $
  • 281855Z AUTO 21003KT 9999 CLR 03/01 A3015 RMK AO2 SLP237 T00320011 $
  • 281755Z AUTO 21003KT 9999 CLR 04/01 A3015 RMK AO2 SLP236 T00370012 10065 20036 53008 $
  • 281655Z AUTO 00000KT 9999 CLR 05/01 A3013 RMK AO2 SLP229 T00460011 $

TAF TAF ETEB
Valid from the 28 at 15:00 until the 29 at 21:00 UTC


281500Z 2815/2921 01006KT 9999 BKN015 QNH3013INS
BECMG 2815/2816 03006KT 9999 FEW020 QNH3011INS
BECMG 2821/2822 16006KT 6000 BR FEW030 QNH3003INS
BECMG 2906/2907 15006KT 4800 BR SCT008 BKN013 QNH2993INS
BECMG 2911/2912 16006KT 9999 NSW BKN015 QNH2976INS TX05/2815Z TN02/2904Z LAST NO AMDS AFT 2823 NEXT 2907



MET'MAP, your aeronautical weather chart ! - Copyright ORBIFLY December 2007 - Disclaimer

ORBIFLY MET'MAP TEAM :

Programming & Development : Alexandra Zaïnal
Original concept : Baudouin d'Aumeries
Technical & hardware support : Manuel Goepfert
Assistance : Marc-Olivier Méhu




SOURCES & CREDITS :

   NOAA